Broome International Airport
YBRM : now visible

Airfield :











YOU CAN JOIN US ON...

 
LOGIN :

Register | Disclaimer

   EN    FR    IT 

 









Legend :    VFR   Marginal VFR   IFR   Intensive IFR   Very Intensive IFR
Visi :
Ceiling :
>= 8 km
>= 3000ft
5 to 8 km
1000 to 3000 ft
1500m to 5 km
500 to 1000 ft
800 to 1500m
200 to 500 ft
< 800m
< 200 ft
Symbols :   Thunderstorms  Fog  Heavy snow  Heavy precipitations  Wind > 20 kt






- Airport Elevation : 56 ft
- IATA code : BME


YBRM - Broome International

CURRENT METAR :
  • 121800Z AUTO 20006KT 9999 // NCD 31/27 Q1008

EXPIRED METARs :
  • 121730Z AUTO 22006KT 9999 // NCD 31/27 Q1007 RF00.0/000.0
  • 121700Z AUTO 25009KT 9999 // NCD 31/26 Q1007
  • 121630Z AUTO 28011KT 9999 // NCD 30/26 Q1006 RF00.0/000.0
  • 121600Z AUTO 29010KT 9999 // NCD 30/26 Q1006
  • 121530Z AUTO 30010KT 9999 // NCD 30/27 Q1007 RF00.0/000.0

TAF AMD TAF YBRM
Valid from the 12 at 18:00 until the 13 at 18:00 UTC


121723Z 1218/1318 24010KT 9999 FEW015
FM130000 06010KT CAVOK
FM130200 27012KT 9999 FEW040
FM131400 30010KT CAVOK
PROB30
TEMPO 1218/1222 VRB25G45KT 2000 TSRA SCT010 SCT080CB
PROB30
TEMPO 1308/1314 VRB25G45KT 2000 TSRA SCT010 SCT080CB



MET'MAP, your aeronautical weather chart ! - Copyright ORBIFLY December 2007 - Disclaimer

ORBIFLY MET'MAP TEAM :

Programming & Development : Alexandra Zaïnal
Concept & original design : Baudouin d'Aumeries
Assistance for programming : Marc-Olivier Méhu
Technical & hardware support : Manuel Goepfert

Contact : metmap@orbifly.com




SOURCES & CREDITS :

   NOAA       Earth
Advisory